createdAt,value
2018-11-06T00:00:16.847Z,13.50
2018-11-06T00:02:21.830Z,13.60
2018-11-06T00:04:31.761Z,14.17
2018-11-06T00:06:36.461Z,13.60
2018-11-06T00:08:41.349Z,13.80
2018-11-06T00:10:46.046Z,13.20
2018-11-06T00:12:50.793Z,12.87
2018-11-06T00:14:59.314Z,12.73
2018-11-06T00:17:04.258Z,14.17
2018-11-06T00:19:09.017Z,15.27
2018-11-06T00:21:13.742Z,14.60
2018-11-06T00:23:18.533Z,13.50
2018-11-06T00:25:23.303Z,14.17
2018-11-06T00:27:28.348Z,12.80
2018-11-06T00:29:33.320Z,14.50
2018-11-06T00:31:38.079Z,13.37
2018-11-06T00:33:42.793Z,14.23
2018-11-06T00:35:47.568Z,13.27
2018-11-06T00:37:52.351Z,13.50
2018-11-06T00:39:57.040Z,13.80
2018-11-06T00:42:01.870Z,13.53
2018-11-06T00:44:06.800Z,13.40
2018-11-06T00:46:11.612Z,11.87
2018-11-06T00:48:16.560Z,13.73
2018-11-06T00:50:21.279Z,13.77
2018-11-06T00:52:25.995Z,12.80
2018-11-06T00:54:30.933Z,13.97
2018-11-06T00:56:35.677Z,13.10
2018-11-06T00:58:40.444Z,14.77
2018-11-06T01:00:45.177Z,13.93
2018-11-06T01:02:50.160Z,12.90
2018-11-06T01:04:54.889Z,12.23
2018-11-06T01:06:59.618Z,14.57
2018-11-06T01:09:05.456Z,15.00
2018-11-06T01:11:10.188Z,12.43
2018-11-06T01:13:14.938Z,14.07
2018-11-06T01:15:19.705Z,14.27
2018-11-06T01:17:24.458Z,13.50
2018-11-06T01:19:29.167Z,13.77
2018-11-06T01:21:33.888Z,13.37
2018-11-06T01:23:38.730Z,12.20
2018-11-06T01:25:43.563Z,14.07
2018-11-06T01:27:48.298Z,13.60
2018-11-06T01:29:53.131Z,13.33
2018-11-06T01:31:57.909Z,11.80
2018-11-06T01:34:02.768Z,12.77
2018-11-06T01:36:07.645Z,14.20
2018-11-06T01:38:12.503Z,13.07
2018-11-06T01:40:18.384Z,14.20
2018-11-06T01:42:23.435Z,14.40
2018-11-06T01:44:28.585Z,12.70
2018-11-06T01:46:33.680Z,14.33
2018-11-06T01:48:38.823Z,14.67
2018-11-06T01:50:43.779Z,13.43
2018-11-06T01:52:48.942Z,14.20
2018-11-06T01:54:53.674Z,14.63
2018-11-06T01:56:58.390Z,15.40
2018-11-06T01:59:03.090Z,12.87
2018-11-06T02:01:07.947Z,13.80
2018-11-06T02:03:12.674Z,13.07
2018-11-06T02:05:18.278Z,13.10
2018-11-06T02:07:23.183Z,14.20
2018-11-06T02:09:28.123Z,14.47
2018-11-06T02:11:32.880Z,14.53
2018-11-06T02:13:37.692Z,12.97
2018-11-06T02:15:42.386Z,13.67
2018-11-06T02:17:47.185Z,13.90
2018-11-06T02:19:52.457Z,14.20
2018-11-06T02:21:57.359Z,13.80
2018-11-06T02:24:02.616Z,14.50
2018-11-06T02:26:07.433Z,14.77
2018-11-06T02:28:12.138Z,13.40
2018-11-06T02:30:17.864Z,14.27
2018-11-06T02:32:22.826Z,13.07
2018-11-06T02:34:27.721Z,13.30
2018-11-06T02:36:32.419Z,14.67
2018-11-06T02:38:37.154Z,13.33
2018-11-06T02:40:41.938Z,12.53
2018-11-06T02:42:46.642Z,13.10
2018-11-06T02:44:51.539Z,12.93
2018-11-06T02:46:56.234Z,12.50
2018-11-06T02:49:01.010Z,12.90
2018-11-06T02:51:06.105Z,12.37
2018-11-06T02:53:10.796Z,13.97
2018-11-06T02:55:15.538Z,13.60
2018-11-06T02:57:20.306Z,12.70
2018-11-06T02:59:25.230Z,12.77
2018-11-06T03:01:29.931Z,13.83
2018-11-06T03:03:41.925Z,13.07
2018-11-06T03:05:46.612Z,13.57
2018-11-06T03:07:51.438Z,12.47
2018-11-06T03:09:56.325Z,13.50
2018-11-06T03:12:01.030Z,13.00
2018-11-06T03:14:05.839Z,12.57
2018-11-06T03:16:10.564Z,11.67
2018-11-06T03:18:15.296Z,12.77
2018-11-06T03:20:19.975Z,12.60
2018-11-06T03:22:24.658Z,14.07
2018-11-06T03:24:29.445Z,13.33
2018-11-06T03:26:34.286Z,12.80
2018-11-06T03:28:39.082Z,12.87
2018-11-06T03:30:43.888Z,12.80
2018-11-06T03:32:48.739Z,14.00
2018-11-06T03:34:53.591Z,12.40
2018-11-06T03:36:58.324Z,13.77
2018-11-06T03:39:03.128Z,13.07
2018-11-06T03:41:07.952Z,13.87
2018-11-06T03:43:12.699Z,13.40
2018-11-06T03:45:17.406Z,12.70
2018-11-06T03:47:22.235Z,13.93
2018-11-06T03:49:26.961Z,11.80
2018-11-06T03:51:31.702Z,14.43
2018-11-06T03:53:36.334Z,12.07
2018-11-06T03:55:41.075Z,12.67
2018-11-06T03:57:45.733Z,14.00
2018-11-06T03:59:50.448Z,12.97
2018-11-06T04:01:55.216Z,12.57
2018-11-06T04:03:59.975Z,13.10
2018-11-06T04:06:04.687Z,12.17
2018-11-06T04:08:09.532Z,13.07
2018-11-06T04:10:14.578Z,11.93
2018-11-06T04:12:19.263Z,12.00
2018-11-06T04:14:23.991Z,13.13
2018-11-06T04:16:28.783Z,12.23
2018-11-06T04:18:33.530Z,12.27
2018-11-06T04:20:38.246Z,12.00
2018-11-06T04:22:43.147Z,12.60
2018-11-06T04:24:47.946Z,12.67
2018-11-06T04:26:52.751Z,12.37
2018-11-06T04:28:57.442Z,13.17
2018-11-06T04:31:02.171Z,11.97
2018-11-06T04:33:06.900Z,13.03
2018-11-06T04:35:12.164Z,11.03
2018-11-06T04:37:17.001Z,12.53
2018-11-06T04:39:21.840Z,12.13
2018-11-06T04:41:26.954Z,12.03
2018-11-06T04:43:31.768Z,11.83
2018-11-06T04:45:36.489Z,11.47
2018-11-06T04:47:41.289Z,13.67
2018-11-06T04:49:46.246Z,13.27
2018-11-06T04:51:51.128Z,13.70
2018-11-06T04:54:00.058Z,12.73
2018-11-06T04:56:05.353Z,12.40
2018-11-06T04:58:10.184Z,11.80
2018-11-06T05:00:15.750Z,12.23
2018-11-06T05:02:20.403Z,11.23
2018-11-06T05:04:25.184Z,12.73
2018-11-06T05:06:29.930Z,11.17
2018-11-06T05:08:34.684Z,12.87
2018-11-06T05:10:39.484Z,11.70
2018-11-06T05:12:44.482Z,12.87
2018-11-06T05:14:49.241Z,10.77
2018-11-06T05:16:54.141Z,12.70
2018-11-06T05:18:58.839Z,12.20
2018-11-06T05:21:03.685Z,11.47
2018-11-06T05:23:08.525Z,11.97
2018-11-06T05:25:13.300Z,12.37
2018-11-06T05:27:18.290Z,12.37
2018-11-06T05:29:23.019Z,11.57
2018-11-06T05:31:27.729Z,13.17
2018-11-06T05:33:32.605Z,12.50
2018-11-06T05:35:37.568Z,10.97
2018-11-06T05:37:42.310Z,12.70
2018-11-06T05:40:04.449Z,12.57
2018-11-06T05:42:09.175Z,11.73
2018-11-06T05:44:18.012Z,11.53
2018-11-06T05:46:22.775Z,10.87
2018-11-06T05:48:27.945Z,11.43
2018-11-06T05:50:32.759Z,11.60
2018-11-06T05:52:37.490Z,11.40
2018-11-06T05:54:42.211Z,12.30
2018-11-06T05:56:46.941Z,12.17
2018-11-06T05:58:51.761Z,11.33
2018-11-06T06:00:56.543Z,11.73
2018-11-06T06:03:01.270Z,12.30
2018-11-06T06:05:07.371Z,12.43
2018-11-06T06:07:12.184Z,11.93
2018-11-06T06:09:16.827Z,11.33
2018-11-06T06:11:21.625Z,12.47
2018-11-06T06:13:26.326Z,11.57
2018-11-06T06:15:31.269Z,12.57
2018-11-06T06:17:36.107Z,11.70
2018-11-06T06:19:40.923Z,11.77
2018-11-06T06:21:45.687Z,11.50
2018-11-06T06:23:50.339Z,11.47
2018-11-06T06:25:55.003Z,10.63
2018-11-06T06:27:59.684Z,11.50
2018-11-06T06:30:05.317Z,11.37
2018-11-06T06:32:10.192Z,10.23
2018-11-06T06:34:15.119Z,12.60
2018-11-06T06:36:19.981Z,11.50
2018-11-06T06:38:24.763Z,11.50
2018-11-06T06:40:29.654Z,12.40
2018-11-06T06:42:34.339Z,11.90
2018-11-06T06:44:39.038Z,11.20
2018-11-06T06:46:43.769Z,13.73
2018-11-06T06:48:48.543Z,12.53
2018-11-06T06:50:53.474Z,10.57
2018-11-06T06:52:58.206Z,12.00
2018-11-06T06:55:03.046Z,11.60
2018-11-06T06:57:07.931Z,11.60
2018-11-06T06:59:12.716Z,12.70
2018-11-06T07:01:17.449Z,12.07
2018-11-06T07:03:22.184Z,12.20
2018-11-06T07:05:26.920Z,12.60
2018-11-06T07:07:31.650Z,11.50
2018-11-06T07:09:36.872Z,11.70
2018-11-06T07:11:41.620Z,11.63
2018-11-06T07:13:46.322Z,11.87
2018-11-06T07:15:51.023Z,11.10
2018-11-06T07:17:55.790Z,13.00
2018-11-06T07:20:00.770Z,12.67
2018-11-06T07:22:05.720Z,13.80
2018-11-06T07:24:10.648Z,12.67
2018-11-06T07:26:15.335Z,12.00
2018-11-06T07:28:20.798Z,11.53
2018-11-06T07:30:25.492Z,11.83
2018-11-06T07:32:30.203Z,14.17
2018-11-06T07:34:34.906Z,11.53
2018-11-06T07:36:39.527Z,13.17
2018-11-06T07:38:44.242Z,12.53
2018-11-06T07:40:48.947Z,12.27
2018-11-06T07:42:53.688Z,13.30
2018-11-06T07:44:58.425Z,13.63
2018-11-06T07:47:03.127Z,13.23
2018-11-06T07:49:08.244Z,15.10
2018-11-06T07:51:12.998Z,11.30
2018-11-06T07:53:17.774Z,12.90
2018-11-06T07:55:22.434Z,12.00
2018-11-06T07:57:27.240Z,13.00
2018-11-06T07:59:32.077Z,13.17
2018-11-06T08:01:40.731Z,12.10
2018-11-06T08:03:45.665Z,12.27
2018-11-06T08:05:50.568Z,11.63
2018-11-06T08:07:55.373Z,11.40
2018-11-06T08:10:04.470Z,11.10
2018-11-06T08:12:09.313Z,11.27
2018-11-06T08:14:14.055Z,13.17
2018-11-06T08:16:18.743Z,11.53
2018-11-06T08:18:23.487Z,11.57
2018-11-06T08:20:28.175Z,11.80
2018-11-06T08:22:32.963Z,12.50
2018-11-06T08:24:37.628Z,10.97
2018-11-06T08:26:42.354Z,12.90
2018-11-06T08:28:47.226Z,12.20
2018-11-06T08:30:52.274Z,11.13
2018-11-06T08:32:56.826Z,10.77
2018-11-06T08:35:01.578Z,11.57
2018-11-06T08:37:06.358Z,11.37
2018-11-06T08:39:11.835Z,12.87
2018-11-06T08:41:16.534Z,12.20
2018-11-06T08:43:21.309Z,11.73
2018-11-06T08:45:26.166Z,12.10
2018-11-06T08:47:30.832Z,13.50
2018-11-06T08:49:35.660Z,11.20
2018-11-06T08:51:40.385Z,11.87
2018-11-06T08:53:46.303Z,11.60
2018-11-06T08:55:51.342Z,11.50
2018-11-06T08:57:56.120Z,13.07
2018-11-06T09:00:00.928Z,11.00
2018-11-06T09:02:05.864Z,11.83
2018-11-06T09:04:10.545Z,10.40
2018-11-06T09:06:15.242Z,11.07
2018-11-06T09:08:19.971Z,11.10
2018-11-06T09:10:24.672Z,11.67
2018-11-06T09:12:29.468Z,11.83
2018-11-06T09:14:34.229Z,10.30
2018-11-06T09:16:38.933Z,10.70
2018-11-06T09:18:43.635Z,10.77
2018-11-06T09:20:48.314Z,11.63
2018-11-06T09:22:53.068Z,9.30
2018-11-06T09:24:57.912Z,9.80
2018-11-06T09:27:02.806Z,9.87
2018-11-06T09:29:07.906Z,9.23
2018-11-06T09:31:12.602Z,8.50
2018-11-06T09:33:17.423Z,8.37
2018-11-06T09:35:22.082Z,8.70
2018-11-06T09:37:26.791Z,8.40
2018-11-06T09:39:31.526Z,9.17
2018-11-06T09:41:36.287Z,7.40
2018-11-06T09:43:41.048Z,8.40
2018-11-06T09:45:45.826Z,8.23
2018-11-06T09:47:50.693Z,8.63
2018-11-06T09:49:55.518Z,7.90
2018-11-06T09:52:00.281Z,7.20
2018-11-06T09:54:05.370Z,7.30
2018-11-06T09:56:10.315Z,7.07
2018-11-06T09:58:15.203Z,7.43
2018-11-06T10:00:20.880Z,7.10
2018-11-06T10:02:25.799Z,7.47
2018-11-06T10:04:30.694Z,7.07
2018-11-06T10:06:35.556Z,8.33
2018-11-06T10:08:40.542Z,7.70
2018-11-06T10:10:47.181Z,7.70
2018-11-06T10:12:52.023Z,7.40
2018-11-06T10:14:56.727Z,6.97
2018-11-06T10:17:01.498Z,8.20
2018-11-06T10:19:06.314Z,8.60
2018-11-06T10:21:11.292Z,7.17
2018-11-06T10:23:16.274Z,7.30
2018-11-06T10:25:21.001Z,7.50
2018-11-06T10:27:25.909Z,7.27
2018-11-06T10:29:30.788Z,7.40
2018-11-06T10:31:36.147Z,7.00
2018-11-06T10:33:41.136Z,7.13
2018-11-06T10:35:46.042Z,8.27
2018-11-06T10:37:50.864Z,6.50
2018-11-06T10:39:55.752Z,7.00
2018-11-06T10:42:00.541Z,6.53
2018-11-06T10:44:05.667Z,6.67
2018-11-06T10:46:10.734Z,6.30
2018-11-06T10:48:15.843Z,6.77
2018-11-06T10:50:20.711Z,7.53
2018-11-06T10:52:25.649Z,6.50
2018-11-06T10:54:30.513Z,6.80
2018-11-06T10:56:35.270Z,6.70
2018-11-06T10:58:40.129Z,6.10
2018-11-06T11:02:53.858Z,5.00
2018-11-06T11:04:58.862Z,4.40
2018-11-06T11:07:03.798Z,5.40
2018-11-06T11:09:10.505Z,5.50
2018-11-06T11:11:15.166Z,4.53
2018-11-06T11:13:20.043Z,5.20
2018-11-06T11:15:24.827Z,4.53
2018-11-06T11:17:29.502Z,4.17
2018-11-06T11:19:34.402Z,5.33
2018-11-06T11:21:39.322Z,5.57
2018-11-06T11:23:44.252Z,4.37
2018-11-06T11:25:49.019Z,4.30
2018-11-06T11:27:53.738Z,4.50
2018-11-06T11:29:58.540Z,5.33
2018-11-06T11:32:03.494Z,5.43
2018-11-06T11:34:08.735Z,5.10
2018-11-06T11:36:13.456Z,5.13
2018-11-06T11:38:18.742Z,4.90
2018-11-06T11:40:24.036Z,4.70
2018-11-06T11:42:28.882Z,5.77
2018-11-06T11:44:36.459Z,7.00
2018-11-06T11:46:41.308Z,4.87
2018-11-06T11:48:46.533Z,5.47
2018-11-06T11:50:51.941Z,5.60
2018-11-06T11:52:57.605Z,5.37
2018-11-06T11:55:02.438Z,4.97
2018-11-06T11:57:07.353Z,4.30
2018-11-06T11:59:12.478Z,4.60
2018-11-06T12:01:17.277Z,4.13
2018-11-06T12:03:22.469Z,4.60
2018-11-06T12:05:28.139Z,4.50
2018-11-06T12:07:33.233Z,5.40
2018-11-06T12:09:38.482Z,5.30
2018-11-06T12:11:43.686Z,5.43
2018-11-06T12:13:48.744Z,4.10
2018-11-06T12:15:53.477Z,4.67
2018-11-06T12:17:58.299Z,4.53
2018-11-06T12:20:04.047Z,4.40
2018-11-06T12:22:08.910Z,4.70
2018-11-06T12:24:14.151Z,3.50
2018-11-06T12:26:18.929Z,4.03
2018-11-06T12:28:23.843Z,4.07
2018-11-06T12:30:29.252Z,4.77
2018-11-06T12:32:34.109Z,4.90
2018-11-06T12:34:38.858Z,4.33
2018-11-06T12:36:43.739Z,3.80
2018-11-06T12:38:48.605Z,4.50
2018-11-06T12:40:53.786Z,4.43
2018-11-06T12:42:58.856Z,3.57
2018-11-06T12:45:03.792Z,4.40
2018-11-06T12:47:08.741Z,3.83
2018-11-06T12:49:13.678Z,4.10
2018-11-06T12:51:18.590Z,3.23
2018-11-06T12:53:23.589Z,3.97
2018-11-06T12:55:28.370Z,4.00
2018-11-06T12:57:33.162Z,3.33
2018-11-06T12:59:38.169Z,3.43
2018-11-06T13:01:43.193Z,3.50
2018-11-06T13:03:48.085Z,4.10
2018-11-06T13:05:53.182Z,3.67
2018-11-06T13:07:57.983Z,3.70
2018-11-06T13:10:03.087Z,3.40
2018-11-06T13:12:08.383Z,4.07
2018-11-06T13:14:13.495Z,3.00
2018-11-06T13:16:18.606Z,3.13
2018-11-06T13:18:23.620Z,3.40
2018-11-06T13:20:29.092Z,3.27
2018-11-06T13:22:34.024Z,2.70
2018-11-06T13:24:38.893Z,3.13
2018-11-06T13:26:43.838Z,3.03
2018-11-06T13:28:48.687Z,3.80
2018-11-06T13:30:54.109Z,3.00
2018-11-06T13:32:59.088Z,3.20
2018-11-06T13:35:04.233Z,3.50
2018-11-06T13:37:09.242Z,3.80
2018-11-06T13:39:15.474Z,4.00
2018-11-06T13:41:20.448Z,2.60
2018-11-06T13:43:25.494Z,3.30
2018-11-06T13:45:30.570Z,3.03
2018-11-06T13:47:36.003Z,3.10
2018-11-06T13:49:41.345Z,2.73
2018-11-06T13:51:46.141Z,2.93
2018-11-06T13:53:50.944Z,3.00
2018-11-06T13:55:57.022Z,3.10
2018-11-06T13:58:02.880Z,3.20
2018-11-06T14:00:13.120Z,2.50
2018-11-06T14:02:21.482Z,2.73
2018-11-06T14:06:57.621Z,3.23
2018-11-06T14:09:11.633Z,2.70
2018-11-06T14:11:18.645Z,2.73
2018-11-06T14:13:30.029Z,3.00
2018-11-06T14:15:37.421Z,3.93
2018-11-06T14:17:42.987Z,2.90
2018-11-06T14:19:53.061Z,3.57
2018-11-06T14:21:58.454Z,2.80
2018-11-06T14:24:03.691Z,3.33
2018-11-06T14:26:10.001Z,2.33
2018-11-06T14:28:15.558Z,2.50
2018-11-06T14:30:22.713Z,3.13
2018-11-06T14:32:28.307Z,3.73
2018-11-06T14:34:33.649Z,3.03
2018-11-06T14:36:38.748Z,3.27
2018-11-06T14:38:43.817Z,3.80
2018-11-06T14:40:48.691Z,3.93
2018-11-06T14:42:54.534Z,4.33
2018-11-06T14:44:59.471Z,4.40
2018-11-06T14:47:04.425Z,3.40
2018-11-06T14:49:09.614Z,5.30
2018-11-06T14:51:14.669Z,4.63
2018-11-06T14:53:19.593Z,4.10
2018-11-06T14:55:24.647Z,4.40
2018-11-06T14:57:31.399Z,4.83
2018-11-06T14:59:38.238Z,5.17
2018-11-06T15:01:43.209Z,4.80
2018-11-06T15:03:50.685Z,4.40
2018-11-06T15:05:55.798Z,4.50
2018-11-06T15:08:01.285Z,5.40
2018-11-06T15:10:08.422Z,5.17
2018-11-06T15:12:13.472Z,5.20
2018-11-06T15:14:18.253Z,6.10
2018-11-06T15:16:25.394Z,6.40
2018-11-06T15:18:31.403Z,7.80
2018-11-06T15:20:36.526Z,6.30
2018-11-06T15:22:42.318Z,5.90
2018-11-06T15:24:48.084Z,6.10
2018-11-06T15:26:53.604Z,6.03
2018-11-06T15:28:58.699Z,6.50
2018-11-06T15:31:03.934Z,5.77
2018-11-06T15:33:08.786Z,6.03
2018-11-06T15:35:14.753Z,6.00
2018-11-06T15:37:19.546Z,5.87
2018-11-06T15:39:24.465Z,7.20
2018-11-06T15:41:29.334Z,5.30
2018-11-06T15:43:34.163Z,6.00
2018-11-06T15:45:38.893Z,4.97
2018-11-06T15:47:44.427Z,5.43
2018-11-06T15:49:49.312Z,4.97
2018-11-06T15:51:54.142Z,4.83
2018-11-06T15:53:58.952Z,5.60
2018-11-06T15:56:03.741Z,6.10
2018-11-06T15:58:08.479Z,5.40
2018-11-06T16:00:20.066Z,5.13
2018-11-06T16:02:24.825Z,5.47
2018-11-06T16:04:29.888Z,5.73
2018-11-06T16:06:35.098Z,6.17
2018-11-06T16:08:39.829Z,6.43
2018-11-06T16:10:46.122Z,6.77
2018-11-06T16:12:52.781Z,6.03
2018-11-06T16:14:57.718Z,6.30
2018-11-06T16:17:03.223Z,6.57
2018-11-06T16:21:21.338Z,5.60
2018-11-06T16:23:26.916Z,6.00
2018-11-06T16:25:32.905Z,5.77
2018-11-06T16:27:38.002Z,6.30
2018-11-06T16:29:43.562Z,6.60
2018-11-06T16:31:49.670Z,6.43
2018-11-06T16:33:54.626Z,6.53
2018-11-06T16:36:02.290Z,6.93
2018-11-06T16:38:07.205Z,7.10
2018-11-06T16:40:12.629Z,6.40
2018-11-06T16:42:17.693Z,7.37
2018-11-06T16:44:22.777Z,6.20
2018-11-06T16:46:27.514Z,6.80
2018-11-06T16:48:32.389Z,6.57
2018-11-06T16:50:37.195Z,7.40
2018-11-06T16:52:42.513Z,7.70
2018-11-06T16:54:47.294Z,7.13
2018-11-06T16:56:52.167Z,7.10
2018-11-06T16:58:57.055Z,6.77
2018-11-06T17:01:02.081Z,7.80
2018-11-06T17:03:06.957Z,6.60
2018-11-06T17:05:12.934Z,6.53
2018-11-06T17:07:17.740Z,6.37
2018-11-06T17:09:22.833Z,6.47
2018-11-06T17:11:27.630Z,6.03
2018-11-06T17:13:34.863Z,6.30
2018-11-06T17:15:40.220Z,6.00
2018-11-06T17:17:45.769Z,6.30
2018-11-06T17:19:50.612Z,4.67
2018-11-06T17:21:58.345Z,6.70
2018-11-06T17:24:03.228Z,4.83
2018-11-06T17:26:09.931Z,5.30
2018-11-06T17:28:15.396Z,6.30
2018-11-06T17:30:20.986Z,5.93
2018-11-06T17:32:26.200Z,6.03
2018-11-06T17:34:32.171Z,6.87
2018-11-06T17:36:37.664Z,5.03
2018-11-06T17:38:42.859Z,6.87
2018-11-06T17:40:47.816Z,6.53
2018-11-06T17:42:53.011Z,6.57
2018-11-06T17:44:58.131Z,6.17
2018-11-06T17:47:03.091Z,6.70
2018-11-06T17:49:08.840Z,6.80
2018-11-06T17:51:14.172Z,6.63
2018-11-06T17:53:19.501Z,6.00
2018-11-06T17:55:25.186Z,6.77
2018-11-06T17:57:30.299Z,5.67
2018-11-06T17:59:35.244Z,6.63
2018-11-06T18:01:40.305Z,6.40
2018-11-06T18:03:45.461Z,5.20
2018-11-06T18:05:51.621Z,6.70
2018-11-06T18:07:57.027Z,5.67
2018-11-06T18:10:03.712Z,6.27
2018-11-06T18:12:09.444Z,6.37
2018-11-06T18:14:15.540Z,5.57
2018-11-06T18:16:21.168Z,5.67
2018-11-06T18:18:27.215Z,5.57
2018-11-06T18:20:32.355Z,5.57
2018-11-06T18:22:38.347Z,5.73
2018-11-06T18:24:43.730Z,5.87
2018-11-06T18:26:49.734Z,6.40
2018-11-06T18:28:54.895Z,5.27
2018-11-06T18:30:59.845Z,6.50
2018-11-06T18:33:04.799Z,6.70
2018-11-06T18:35:11.303Z,6.20
2018-11-06T18:37:16.359Z,5.50
2018-11-06T18:39:22.370Z,5.93
2018-11-06T18:41:28.571Z,6.10
2018-11-06T18:43:36.031Z,5.47
2018-11-06T18:45:41.067Z,6.67
2018-11-06T18:47:46.252Z,5.77
2018-11-06T18:49:52.132Z,5.20
2018-11-06T18:51:57.269Z,5.70
2018-11-06T18:54:02.669Z,6.20
2018-11-06T18:56:07.965Z,5.70
2018-11-06T18:58:12.968Z,6.00
2018-11-06T19:00:20.146Z,6.50
2018-11-06T19:02:25.381Z,5.87
2018-11-06T19:04:30.492Z,6.50
2018-11-06T19:06:35.627Z,6.20
2018-11-06T19:08:41.259Z,6.33
2018-11-06T19:10:46.202Z,5.47
2018-11-06T19:12:51.321Z,5.93
2018-11-06T19:14:56.382Z,5.93
2018-11-06T19:17:01.621Z,6.80
2018-11-06T19:19:07.105Z,5.93
2018-11-06T19:21:12.142Z,5.30
2018-11-06T19:23:17.543Z,6.90
2018-11-06T19:25:23.100Z,7.33
2018-11-06T19:27:28.777Z,6.67
2018-11-06T19:29:33.867Z,6.10
2018-11-06T19:31:39.001Z,6.40
2018-11-06T19:33:44.145Z,5.77
2018-11-06T19:35:52.156Z,6.47
2018-11-06T19:37:58.073Z,6.27
2018-11-06T19:40:04.502Z,6.90
2018-11-06T19:42:18.525Z,6.43
2018-11-06T19:44:28.749Z,7.37
2018-11-06T19:46:47.947Z,6.10
2018-11-06T19:48:54.237Z,6.43
2018-11-06T19:51:00.407Z,6.10
2018-11-06T19:53:06.344Z,6.50
2018-11-06T19:55:13.158Z,5.70
2018-11-06T19:57:18.530Z,6.13
2018-11-06T19:59:26.413Z,5.67
2018-11-06T20:01:36.932Z,5.97
2018-11-06T20:03:48.492Z,5.90
2018-11-06T20:05:54.329Z,6.87
2018-11-06T20:08:00.119Z,6.20
2018-11-06T20:10:08.187Z,6.37
2018-11-06T20:12:13.381Z,7.43
2018-11-06T20:14:19.548Z,5.83
2018-11-06T20:16:25.005Z,7.23
2018-11-06T20:18:32.221Z,6.80
2018-11-06T20:20:38.973Z,6.80
2018-11-06T20:22:45.244Z,7.43
2018-11-06T20:24:54.958Z,6.40
2018-11-06T20:32:25.901Z,6.63
2018-11-06T20:34:40.332Z,6.33
2018-11-06T20:36:59.817Z,6.50
2018-11-06T20:39:12.592Z,5.90
2018-11-06T20:41:36.219Z,6.57
2018-11-06T20:43:53.530Z,6.07
2018-11-06T20:46:07.802Z,5.47
2018-11-06T20:50:58.839Z,6.50
2018-11-06T20:53:28.714Z,5.30
2018-11-06T20:55:43.731Z,6.90
2018-11-06T20:57:58.262Z,6.27
2018-11-06T21:00:45.834Z,6.03
2018-11-06T21:02:54.351Z,6.50
2018-11-06T21:05:03.106Z,6.40
2018-11-06T21:13:21.251Z,6.70
2018-11-06T21:18:24.473Z,6.90
2018-11-06T21:20:46.215Z,7.27
2018-11-06T21:25:45.201Z,6.67
2018-11-06T21:30:13.494Z,6.67
2018-11-06T21:32:20.322Z,6.00
2018-11-06T21:34:26.811Z,6.40
2018-11-06T21:36:36.139Z,6.37
2018-11-06T21:38:46.221Z,6.53
2018-11-06T21:40:52.486Z,6.50
2018-11-06T21:42:58.713Z,6.47
2018-11-06T21:45:06.386Z,7.10
2018-11-06T21:47:13.992Z,6.33
2018-11-06T21:49:22.072Z,7.00
2018-11-06T21:51:33.424Z,6.83
2018-11-06T21:56:08.983Z,7.47
2018-11-06T21:58:14.485Z,6.70
2018-11-06T22:00:24.435Z,7.20
2018-11-06T22:02:30.517Z,6.30
2018-11-06T22:04:35.593Z,7.77
2018-11-06T22:06:41.001Z,6.53
2018-11-06T22:08:46.237Z,8.03
2018-11-06T22:10:52.456Z,6.43
2018-11-06T22:12:57.716Z,7.13
2018-11-06T22:15:03.219Z,8.03
2018-11-06T22:17:09.356Z,6.67
2018-11-06T22:19:15.363Z,6.90
2018-11-06T22:21:21.411Z,6.73
2018-11-06T22:23:29.665Z,6.60
2018-11-06T22:25:35.832Z,8.20
2018-11-06T22:27:49.955Z,7.57
2018-11-06T22:29:54.975Z,6.03
2018-11-06T22:32:01.094Z,7.50
2018-11-06T22:34:06.381Z,6.90
2018-11-06T22:36:12.304Z,6.90
2018-11-06T22:38:17.731Z,6.60
2018-11-06T22:40:23.996Z,7.60
2018-11-06T22:42:28.880Z,7.30
2018-11-06T22:44:33.806Z,7.10
2018-11-06T22:46:38.913Z,7.87
2018-11-06T22:48:43.898Z,6.87
2018-11-06T22:50:48.945Z,6.80
2018-11-06T22:52:53.924Z,7.33
2018-11-06T22:55:01.567Z,8.10
2018-11-06T22:57:10.795Z,6.73
2018-11-06T22:59:26.317Z,5.83
2018-11-06T23:01:33.419Z,6.80
2018-11-06T23:03:39.354Z,7.70
2018-11-06T23:05:45.978Z,6.53
2018-11-06T23:07:57.506Z,7.10
2018-11-06T23:10:02.575Z,6.60
2018-11-06T23:12:07.801Z,7.00
2018-11-06T23:14:12.781Z,7.20
2018-11-06T23:16:17.539Z,6.40
2018-11-06T23:18:22.430Z,6.50
2018-11-06T23:20:27.204Z,7.07
2018-11-06T23:22:32.397Z,7.43
2018-11-06T23:24:37.898Z,6.63
2018-11-06T23:26:42.739Z,6.87
2018-11-06T23:28:47.604Z,6.10
2018-11-06T23:30:52.525Z,6.93
2018-11-06T23:32:57.340Z,6.03
2018-11-06T23:35:02.149Z,6.70
2018-11-06T23:37:07.066Z,7.67
2018-11-06T23:39:11.847Z,7.27
2018-11-06T23:41:16.764Z,6.63
2018-11-06T23:43:21.583Z,6.73
2018-11-06T23:45:26.375Z,6.50
2018-11-06T23:47:31.274Z,7.77
2018-11-06T23:49:36.133Z,7.27
2018-11-06T23:51:40.865Z,7.30
2018-11-06T23:53:45.685Z,6.90
2018-11-06T23:55:51.386Z,7.70
2018-11-06T23:57:56.085Z,7.43
